createdAt,value
2023-05-10T00:00:01.489Z,3.08
2023-05-10T00:02:41.419Z,3.08
2023-05-10T00:05:10.264Z,3.00
2023-05-10T00:07:38.285Z,3.00
2023-05-10T00:10:07.012Z,3.25
2023-05-10T00:12:34.986Z,3.13
2023-05-10T00:15:06.233Z,3.10
2023-05-10T00:17:34.368Z,3.15
2023-05-10T00:20:02.452Z,3.72
2023-05-10T00:22:30.564Z,3.35
2023-05-10T00:24:58.683Z,3.30
2023-05-10T00:27:26.659Z,3.10
2023-05-10T00:29:54.697Z,2.97
2023-05-10T00:32:24.293Z,3.03
2023-05-10T00:34:52.474Z,3.40
2023-05-10T00:37:20.451Z,3.05
2023-05-10T00:39:48.456Z,3.47
2023-05-10T00:42:16.479Z,2.90
2023-05-10T00:44:44.770Z,3.47
2023-05-10T00:47:12.889Z,3.10
2023-05-10T00:49:43.348Z,3.22
2023-05-10T00:52:12.886Z,2.90
2023-05-10T00:54:40.946Z,3.35
2023-05-10T00:57:09.075Z,3.00
2023-05-10T00:59:37.278Z,2.95
2023-05-10T01:02:05.375Z,2.75
2023-05-10T01:04:33.701Z,2.60
2023-05-10T01:07:03.334Z,3.50
2023-05-10T01:09:31.548Z,3.00
2023-05-10T01:11:59.623Z,3.75
2023-05-10T01:14:28.730Z,3.30
2023-05-10T01:16:57.732Z,2.97
2023-05-10T01:19:29.973Z,3.42
2023-05-10T01:22:12.168Z,2.70
2023-05-10T01:25:01.818Z,2.85
2023-05-10T01:27:57.638Z,2.80
2023-05-10T01:30:49.581Z,2.75
2023-05-10T01:33:21.570Z,2.65
2023-05-10T01:35:57.607Z,3.28
2023-05-10T01:38:35.048Z,3.00
2023-05-10T01:41:13.990Z,3.03
2023-05-10T01:43:50.527Z,3.08
2023-05-10T01:46:24.751Z,3.03
2023-05-10T01:48:58.332Z,3.28
2023-05-10T01:51:28.482Z,3.25
2023-05-10T01:54:03.512Z,2.28
2023-05-10T01:56:35.244Z,3.17
2023-05-10T01:59:13.372Z,2.80
2023-05-10T02:01:42.773Z,3.10
2023-05-10T02:04:15.937Z,3.10
2023-05-10T02:06:45.636Z,3.30
2023-05-10T02:09:14.085Z,2.75
2023-05-10T02:11:44.989Z,3.38
2023-05-10T02:14:15.288Z,2.63
2023-05-10T02:16:45.229Z,2.65
2023-05-10T02:19:16.656Z,2.63
2023-05-10T02:21:45.756Z,3.30
2023-05-10T02:24:14.991Z,2.97
2023-05-10T02:26:44.421Z,2.85
2023-05-10T02:29:14.588Z,2.90
2023-05-10T02:31:44.540Z,2.83
2023-05-10T02:34:15.045Z,3.00
2023-05-10T02:36:44.506Z,2.95
2023-05-10T02:39:14.565Z,2.70
2023-05-10T02:41:44.138Z,2.92
2023-05-10T02:44:13.990Z,2.65
2023-05-10T02:46:42.003Z,2.70
2023-05-10T02:49:10.272Z,2.30
2023-05-10T02:51:44.652Z,2.95
2023-05-10T02:54:17.712Z,2.72
2023-05-10T02:56:52.590Z,2.42
2023-05-10T02:59:20.740Z,2.67
2023-05-10T03:01:48.883Z,2.75
2023-05-10T03:04:17.177Z,2.80
2023-05-10T03:06:47.053Z,2.95
2023-05-10T03:09:16.861Z,3.00
2023-05-10T03:11:57.528Z,2.85
2023-05-10T03:14:41.045Z,2.63
2023-05-10T03:17:13.049Z,3.03
2023-05-10T03:19:48.800Z,2.85
2023-05-10T03:22:25.631Z,3.15
2023-05-10T03:24:57.615Z,2.88
2023-05-10T03:27:29.220Z,3.10
2023-05-10T03:29:58.924Z,2.92
2023-05-10T03:32:28.140Z,2.58
2023-05-10T03:34:56.334Z,2.85
2023-05-10T03:37:27.486Z,2.70
2023-05-10T03:39:55.576Z,2.70
2023-05-10T03:42:23.839Z,2.60
2023-05-10T03:44:51.820Z,2.92
2023-05-10T03:47:19.753Z,2.63
2023-05-10T03:49:47.934Z,2.83
2023-05-10T03:52:16.463Z,2.78
2023-05-10T03:54:45.966Z,2.88
2023-05-10T03:57:14.040Z,2.80
2023-05-10T03:59:42.052Z,2.95
2023-05-10T04:02:10.071Z,2.55
2023-05-10T04:04:38.305Z,2.78
2023-05-10T04:07:06.760Z,2.72
2023-05-10T04:09:34.674Z,2.72
2023-05-10T04:12:04.413Z,2.90
2023-05-10T04:14:32.359Z,2.97
2023-05-10T04:17:00.426Z,2.95
2023-05-10T04:19:32.208Z,2.47
2023-05-10T04:22:00.415Z,2.65
2023-05-10T04:24:28.387Z,2.70
2023-05-10T04:26:57.897Z,2.83
2023-05-10T04:29:27.693Z,2.58
2023-05-10T04:31:57.632Z,2.70
2023-05-10T04:34:25.628Z,3.03
2023-05-10T04:36:53.575Z,2.40
2023-05-10T04:39:21.510Z,2.80
2023-05-10T04:41:49.449Z,2.63
2023-05-10T04:44:17.467Z,2.50
2023-05-10T04:46:47.275Z,2.60
2023-05-10T04:49:15.431Z,2.67
2023-05-10T04:51:43.455Z,2.60
2023-05-10T04:54:11.519Z,2.30
2023-05-10T04:56:39.425Z,2.70
2023-05-10T04:59:07.643Z,2.60
2023-05-10T05:01:35.705Z,2.60
2023-05-10T05:04:05.938Z,2.45
2023-05-10T05:06:33.911Z,2.45
2023-05-10T05:09:01.966Z,2.65
2023-05-10T05:11:29.929Z,2.63
2023-05-10T05:14:00.002Z,2.45
2023-05-10T05:16:28.201Z,2.40
2023-05-10T05:18:56.902Z,2.63
2023-05-10T05:21:27.871Z,3.08
2023-05-10T05:23:55.841Z,2.85
2023-05-10T05:26:23.824Z,2.60
2023-05-10T05:28:54.879Z,2.70
2023-05-10T05:31:23.142Z,2.60
2023-05-10T05:33:51.149Z,2.50
2023-05-10T05:36:19.201Z,2.70
2023-05-10T05:38:48.713Z,3.13
2023-05-10T05:41:16.707Z,3.05
2023-05-10T05:43:44.695Z,3.17
2023-05-10T05:46:12.788Z,2.47
2023-05-10T05:48:40.846Z,3.30
2023-05-10T05:51:08.936Z,2.83
2023-05-10T05:53:37.014Z,3.17
2023-05-10T05:56:06.943Z,2.88
2023-05-10T05:58:34.916Z,2.65
2023-05-10T06:01:03.005Z,2.65
2023-05-10T06:03:31.077Z,2.47
2023-05-10T06:05:59.171Z,2.65
2023-05-10T06:08:27.227Z,2.40
2023-05-10T06:10:55.206Z,2.88
2023-05-10T06:13:24.683Z,3.10
2023-05-10T06:15:52.694Z,3.20
2023-05-10T06:18:20.713Z,2.83
2023-05-10T06:20:48.620Z,2.90
2023-05-10T06:23:16.598Z,2.90
2023-05-10T06:25:44.567Z,3.30
2023-05-10T06:28:12.532Z,3.10
2023-05-10T06:30:41.819Z,3.05
2023-05-10T06:33:09.790Z,2.60
2023-05-10T06:35:37.867Z,2.90
2023-05-10T06:38:05.914Z,3.20
2023-05-10T06:40:33.906Z,3.13
2023-05-10T06:43:01.938Z,3.33
2023-05-10T06:45:30.138Z,3.47
2023-05-10T06:47:59.516Z,3.38
2023-05-10T06:50:27.619Z,3.17
2023-05-10T06:52:56.472Z,3.22
2023-05-10T06:55:24.621Z,3.78
2023-05-10T06:57:52.645Z,2.92
2023-05-10T07:00:21.906Z,3.53
2023-05-10T07:02:50.207Z,3.13
2023-05-10T07:05:21.136Z,2.55
2023-05-10T07:07:49.464Z,2.65
2023-05-10T07:10:17.435Z,3.28
2023-05-10T07:12:45.706Z,2.78
2023-05-10T07:15:13.716Z,2.92
2023-05-10T07:17:43.182Z,2.70
2023-05-10T07:20:13.944Z,2.80
2023-05-10T07:22:43.297Z,2.83
2023-05-10T07:25:11.820Z,3.67
2023-05-10T07:27:39.810Z,2.70
2023-05-10T07:30:09.390Z,3.00
2023-05-10T07:32:37.479Z,2.90
2023-05-10T07:35:06.491Z,2.85
2023-05-10T07:37:34.497Z,3.10
2023-05-10T07:40:04.647Z,3.17
2023-05-10T07:42:32.735Z,3.00
2023-05-10T07:45:00.875Z,2.67
2023-05-10T07:47:28.935Z,2.75
2023-05-10T07:49:56.899Z,3.13
2023-05-10T07:52:24.922Z,3.13
2023-05-10T07:54:53.011Z,2.63
2023-05-10T07:57:22.319Z,3.00
2023-05-10T07:59:50.324Z,3.10
2023-05-10T08:02:18.459Z,3.40
2023-05-10T08:04:46.552Z,3.13
2023-05-10T08:07:14.785Z,3.00
2023-05-10T08:09:42.734Z,2.97
2023-05-10T08:12:10.778Z,3.17
2023-05-10T08:14:40.153Z,3.00
2023-05-10T08:17:08.191Z,3.47
2023-05-10T08:19:36.204Z,3.15
2023-05-10T08:22:04.204Z,3.08
2023-05-10T08:24:32.230Z,2.95
2023-05-10T08:27:00.199Z,2.80
2023-05-10T08:29:30.397Z,2.72
2023-05-10T08:31:59.989Z,2.83
2023-05-10T08:34:28.092Z,3.08
2023-05-10T08:36:56.247Z,3.22
2023-05-10T08:39:30.245Z,3.47
2023-05-10T08:42:03.590Z,3.13
2023-05-10T08:44:34.026Z,3.22
2023-05-10T08:47:06.510Z,2.70
2023-05-10T08:49:35.759Z,3.35
2023-05-10T08:52:06.576Z,3.25
2023-05-10T08:54:35.291Z,3.72
2023-05-10T08:57:04.137Z,3.03
2023-05-10T08:59:32.293Z,3.50
2023-05-10T09:02:01.354Z,2.70
2023-05-10T09:04:32.082Z,3.22
2023-05-10T09:07:00.409Z,3.10
2023-05-10T09:09:30.114Z,3.33
2023-05-10T09:11:58.461Z,2.95
2023-05-10T09:14:27.189Z,2.60
2023-05-10T09:16:56.309Z,2.50
2023-05-10T09:19:24.477Z,2.88
2023-05-10T09:21:53.864Z,2.97
2023-05-10T09:24:26.965Z,3.10
2023-05-10T09:26:55.044Z,2.88
2023-05-10T09:29:22.989Z,3.08
2023-05-10T09:31:53.482Z,3.03
2023-05-10T09:34:30.205Z,2.97
2023-05-10T09:37:02.471Z,2.92
2023-05-10T09:39:34.297Z,3.03
2023-05-10T09:42:04.831Z,3.10
2023-05-10T09:44:33.459Z,3.30
2023-05-10T09:47:01.933Z,3.00
2023-05-10T09:49:30.754Z,3.00
2023-05-10T09:52:07.593Z,3.13
2023-05-10T09:54:36.969Z,2.80
2023-05-10T09:57:05.231Z,2.65
2023-05-10T09:59:35.873Z,3.15
2023-05-10T10:02:04.678Z,2.80
2023-05-10T10:04:33.111Z,3.08
2023-05-10T10:07:06.700Z,3.10
2023-05-10T10:09:36.514Z,3.17
2023-05-10T10:12:05.676Z,3.20
2023-05-10T10:14:34.033Z,2.78
2023-05-10T10:17:07.391Z,3.05
2023-05-10T10:19:37.806Z,2.85
2023-05-10T10:22:07.753Z,2.88
2023-05-10T10:24:35.771Z,3.05
2023-05-10T10:27:18.564Z,2.97
2023-05-10T10:29:59.011Z,2.63
2023-05-10T10:32:34.636Z,3.00
2023-05-10T10:35:02.850Z,2.90
2023-05-10T10:37:46.283Z,2.60
2023-05-10T10:40:28.139Z,2.65
2023-05-10T10:42:56.896Z,2.67
2023-05-10T10:45:26.512Z,2.83
2023-05-10T10:48:24.434Z,2.65
2023-05-10T10:50:58.726Z,2.90
2023-05-10T10:53:30.506Z,3.20
2023-05-10T10:56:09.049Z,2.88
2023-05-10T10:58:38.185Z,2.70
2023-05-10T11:01:16.753Z,2.47
2023-05-10T11:04:18.846Z,3.15
2023-05-10T11:06:46.983Z,2.88
2023-05-10T11:09:16.200Z,2.78
2023-05-10T11:11:56.093Z,2.97
2023-05-10T11:14:24.838Z,3.00
2023-05-10T11:16:53.851Z,3.13
2023-05-10T11:19:22.070Z,2.85
2023-05-10T11:21:51.604Z,3.38
2023-05-10T11:24:24.643Z,3.28
2023-05-10T11:26:53.312Z,2.70
2023-05-10T11:29:21.449Z,2.75
2023-05-10T11:31:50.529Z,2.88
2023-05-10T11:34:28.815Z,3.10
2023-05-10T11:36:57.932Z,2.78
2023-05-10T11:39:30.437Z,2.60
2023-05-10T11:41:59.029Z,3.05
2023-05-10T11:44:31.541Z,3.42
2023-05-10T11:47:01.094Z,3.22
2023-05-10T11:49:29.392Z,2.88
2023-05-10T11:52:06.188Z,2.80
2023-05-10T11:54:36.360Z,2.95
2023-05-10T11:57:04.805Z,3.35
2023-05-10T11:59:32.943Z,2.92
2023-05-10T12:02:01.330Z,3.00
2023-05-10T12:04:30.555Z,2.50
2023-05-10T12:06:59.161Z,2.80
2023-05-10T12:09:39.748Z,2.83
2023-05-10T12:12:17.790Z,3.05
2023-05-10T12:14:45.781Z,3.10
2023-05-10T12:17:13.972Z,2.65
2023-05-10T12:19:42.051Z,2.65
2023-05-10T12:22:10.194Z,3.08
2023-05-10T12:24:39.116Z,2.67
2023-05-10T12:27:09.215Z,3.00
2023-05-10T12:29:42.146Z,2.65
2023-05-10T12:32:11.162Z,3.10
2023-05-10T12:34:39.520Z,2.58
2023-05-10T12:37:07.638Z,2.70
2023-05-10T12:39:43.076Z,3.05
2023-05-10T12:42:11.607Z,2.78
2023-05-10T12:44:41.247Z,2.67
2023-05-10T12:47:10.643Z,3.05
2023-05-10T12:49:38.739Z,2.80
2023-05-10T12:52:06.780Z,3.15
2023-05-10T12:54:34.935Z,2.83
2023-05-10T12:57:02.959Z,2.53
2023-05-10T12:59:31.147Z,2.80
2023-05-10T13:02:01.050Z,2.85
2023-05-10T13:04:29.377Z,2.90
2023-05-10T13:06:59.782Z,2.67
2023-05-10T13:09:30.369Z,3.00
2023-05-10T13:11:58.395Z,2.88
2023-05-10T13:14:26.953Z,2.90
2023-05-10T13:16:55.069Z,2.90
2023-05-10T13:19:24.673Z,3.28
2023-05-10T13:21:52.802Z,2.83
2023-05-10T13:24:21.009Z,2.60
2023-05-10T13:26:49.454Z,2.80
2023-05-10T13:29:19.127Z,2.90
2023-05-10T13:31:47.779Z,3.22
2023-05-10T13:34:15.878Z,2.63
2023-05-10T13:36:45.340Z,2.70
2023-05-10T13:39:13.417Z,3.00
2023-05-10T13:41:41.557Z,2.50
2023-05-10T13:44:10.093Z,2.47
2023-05-10T13:46:38.894Z,2.80
2023-05-10T13:49:06.918Z,2.40
2023-05-10T13:51:36.046Z,2.65
2023-05-10T13:54:05.984Z,2.30
2023-05-10T13:56:33.936Z,2.63
2023-05-10T13:59:02.237Z,2.80
2023-05-10T14:01:30.270Z,2.90
2023-05-10T14:03:58.400Z,2.45
2023-05-10T14:06:26.365Z,3.28
2023-05-10T14:08:54.572Z,2.38
2023-05-10T14:11:24.807Z,2.85
2023-05-10T14:13:53.033Z,2.67
2023-05-10T14:16:21.361Z,2.78
2023-05-10T14:18:49.727Z,2.50
2023-05-10T14:21:17.780Z,2.92
2023-05-10T14:23:45.739Z,2.30
2023-05-10T14:26:13.794Z,3.00
2023-05-10T14:28:43.275Z,2.85
2023-05-10T14:31:11.269Z,2.58
2023-05-10T14:33:39.358Z,2.85
2023-05-10T14:36:08.143Z,2.78
2023-05-10T14:38:36.213Z,2.65
2023-05-10T14:41:04.315Z,2.40
2023-05-10T14:43:32.399Z,2.60
2023-05-10T14:46:02.216Z,2.50
2023-05-10T14:48:30.260Z,2.35
2023-05-10T14:50:58.264Z,3.00
2023-05-10T14:53:26.409Z,2.30
2023-05-10T14:55:54.531Z,2.75
2023-05-10T14:58:22.653Z,2.75
2023-05-10T15:00:50.947Z,2.55
2023-05-10T15:03:20.967Z,2.67
2023-05-10T15:05:49.536Z,2.55
2023-05-10T15:08:17.599Z,2.45
2023-05-10T15:10:45.627Z,2.20
2023-05-10T15:13:13.756Z,2.47
2023-05-10T15:15:42.001Z,2.55
2023-05-10T15:18:11.060Z,2.30
2023-05-10T15:20:40.793Z,2.42
2023-05-10T15:23:08.946Z,2.42
2023-05-10T15:25:38.222Z,2.67
2023-05-10T15:28:06.775Z,2.38
2023-05-10T15:30:34.767Z,2.78
2023-05-10T15:33:03.376Z,2.30
2023-05-10T15:35:31.443Z,3.35
2023-05-10T15:38:00.895Z,20.10
2023-05-10T15:40:28.918Z,135.20
2023-05-10T15:42:56.939Z,78.50
2023-05-10T15:45:25.325Z,103.43
2023-05-10T15:47:53.412Z,131.23
2023-05-10T15:50:21.538Z,143.85
2023-05-10T15:52:49.609Z,167.73
2023-05-10T15:55:19.102Z,184.13
2023-05-10T15:57:48.732Z,176.45
2023-05-10T16:00:17.327Z,155.57
2023-05-10T16:02:45.460Z,104.65
2023-05-10T16:05:14.073Z,80.43
2023-05-10T16:07:42.417Z,67.75
2023-05-10T16:10:12.135Z,54.20
2023-05-10T16:12:41.887Z,44.70
2023-05-10T16:15:10.855Z,35.97
2023-05-10T16:17:38.986Z,33.72
2023-05-10T16:20:08.548Z,24.27
2023-05-10T16:22:36.949Z,22.35
2023-05-10T16:25:05.465Z,20.75
2023-05-10T16:27:33.681Z,18.80
2023-05-10T16:30:03.237Z,17.40
2023-05-10T16:32:31.397Z,13.40
2023-05-10T16:35:00.313Z,12.43
2023-05-10T16:37:28.702Z,13.05
2023-05-10T16:39:56.697Z,12.00
2023-05-10T16:42:26.049Z,12.48
2023-05-10T16:44:54.767Z,11.27
2023-05-10T16:47:26.747Z,11.60
2023-05-10T16:49:54.910Z,10.75
2023-05-10T16:52:23.906Z,9.43
2023-05-10T16:54:51.974Z,8.85
2023-05-10T16:57:19.956Z,8.70
2023-05-10T16:59:48.100Z,8.25
2023-05-10T17:02:16.895Z,7.85
2023-05-10T17:04:46.454Z,7.72
2023-05-10T17:07:14.690Z,7.80
2023-05-10T17:09:44.014Z,6.72
2023-05-10T17:12:12.045Z,6.97
2023-05-10T17:14:39.966Z,5.97
2023-05-10T17:17:08.038Z,5.65
2023-05-10T17:19:36.260Z,5.35
2023-05-10T17:22:05.667Z,5.38
2023-05-10T17:24:33.750Z,5.05
2023-05-10T17:27:03.515Z,4.82
2023-05-10T17:29:32.160Z,4.95
2023-05-10T17:32:00.322Z,4.60
2023-05-10T17:34:28.385Z,5.00
2023-05-10T17:36:56.329Z,4.40
2023-05-10T17:39:25.730Z,4.65
2023-05-10T17:41:53.632Z,4.18
2023-05-10T17:44:21.568Z,4.35
2023-05-10T17:46:49.571Z,4.20
2023-05-10T17:49:17.620Z,3.78
2023-05-10T17:51:48.062Z,4.38
2023-05-10T17:54:16.292Z,3.45
2023-05-10T17:56:45.622Z,4.00
2023-05-10T17:59:13.747Z,3.30
2023-05-10T18:01:42.402Z,3.35
2023-05-10T18:04:10.633Z,3.35
2023-05-10T18:06:39.188Z,3.30
2023-05-10T18:09:07.623Z,3.60
2023-05-10T18:11:36.464Z,3.25
2023-05-10T18:14:05.922Z,2.90
2023-05-10T18:16:34.124Z,2.75
2023-05-10T18:19:02.283Z,2.85
2023-05-10T18:21:31.346Z,2.67
2023-05-10T18:23:59.300Z,3.00
2023-05-10T18:26:27.767Z,2.72
2023-05-10T18:28:55.695Z,3.47
2023-05-10T18:31:25.082Z,2.60
2023-05-10T18:33:53.225Z,3.20
2023-05-10T18:36:21.422Z,3.03
2023-05-10T18:38:49.435Z,3.25
2023-05-10T18:41:17.477Z,2.90
2023-05-10T18:43:45.529Z,2.72
2023-05-10T18:46:13.569Z,2.72
2023-05-10T18:48:43.128Z,2.50
2023-05-10T18:51:12.525Z,2.78
2023-05-10T18:53:40.509Z,2.25
2023-05-10T18:56:08.688Z,2.60
2023-05-10T18:58:36.918Z,2.97
2023-05-10T19:01:05.055Z,3.08
2023-05-10T19:03:33.219Z,2.58
2023-05-10T19:06:02.759Z,2.55
2023-05-10T19:08:31.177Z,2.83
2023-05-10T19:10:59.225Z,2.78
2023-05-10T19:13:28.864Z,2.88
2023-05-10T19:16:06.901Z,2.53
2023-05-10T19:18:35.045Z,2.58
2023-05-10T19:21:08.411Z,2.40
2023-05-10T19:23:38.378Z,2.42
2023-05-10T19:26:06.708Z,2.20
2023-05-10T19:28:36.593Z,2.47
2023-05-10T19:31:04.767Z,2.38
2023-05-10T19:33:32.761Z,2.83
2023-05-10T19:36:00.933Z,2.72
2023-05-10T19:38:30.423Z,2.83
2023-05-10T19:40:59.304Z,2.30
2023-05-10T19:43:28.014Z,2.05
2023-05-10T19:45:56.619Z,2.00
2023-05-10T19:48:24.599Z,2.28
2023-05-10T19:50:52.767Z,2.20
2023-05-10T19:53:20.828Z,1.88
2023-05-10T19:55:50.253Z,2.05
2023-05-10T19:58:18.316Z,2.40
2023-05-10T20:00:46.440Z,1.90
2023-05-10T20:03:14.545Z,1.80
2023-05-10T20:05:42.614Z,1.88
2023-05-10T20:08:10.713Z,1.85
2023-05-10T20:10:38.818Z,1.90
2023-05-10T20:13:08.285Z,1.70
2023-05-10T20:15:36.320Z,1.80
2023-05-10T20:18:04.818Z,1.60
2023-05-10T20:20:32.938Z,1.45
2023-05-10T20:23:01.007Z,1.80
2023-05-10T20:25:29.041Z,2.00
2023-05-10T20:27:57.171Z,2.00
2023-05-10T20:30:26.787Z,1.98
2023-05-10T20:32:54.918Z,2.08
2023-05-10T20:35:22.916Z,2.00
2023-05-10T20:37:50.922Z,1.85
2023-05-10T20:40:19.130Z,2.75
2023-05-10T20:42:47.572Z,2.35
2023-05-10T20:45:15.860Z,1.77
2023-05-10T20:47:45.417Z,1.90
2023-05-10T20:50:13.523Z,2.00
2023-05-10T20:52:41.526Z,1.65
2023-05-10T20:55:10.404Z,1.77
2023-05-10T20:57:38.491Z,2.10
2023-05-10T21:00:08.187Z,1.98
2023-05-10T21:02:36.366Z,1.80
2023-05-10T21:05:06.683Z,1.70
2023-05-10T21:07:34.776Z,1.60
2023-05-10T21:10:03.157Z,2.20
2023-05-10T21:12:31.159Z,1.90
2023-05-10T21:14:59.126Z,1.80
2023-05-10T21:17:27.255Z,1.95
2023-05-10T21:19:55.385Z,2.13
2023-05-10T21:22:24.745Z,1.92
2023-05-10T21:24:52.712Z,1.95
2023-05-10T21:27:20.665Z,1.60
2023-05-10T21:29:48.732Z,1.75
2023-05-10T21:32:16.766Z,1.83
2023-05-10T21:34:44.765Z,2.05
2023-05-10T21:37:12.833Z,1.65
2023-05-10T21:39:42.224Z,2.22
2023-05-10T21:42:10.220Z,1.83
2023-05-10T21:44:38.749Z,1.85
2023-05-10T21:47:06.782Z,2.00
2023-05-10T21:49:34.697Z,1.88
2023-05-10T21:52:02.779Z,1.95
2023-05-10T21:54:30.769Z,1.85
2023-05-10T21:57:00.589Z,1.80
2023-05-10T21:59:28.573Z,1.83
2023-05-10T22:01:56.574Z,2.00
2023-05-10T22:04:24.595Z,1.70
2023-05-10T22:06:52.599Z,1.95
2023-05-10T22:09:20.838Z,2.25
2023-05-10T22:11:48.899Z,2.03
2023-05-10T22:14:18.267Z,1.80
2023-05-10T22:16:46.367Z,1.83
2023-05-10T22:19:14.501Z,1.88
2023-05-10T22:21:42.673Z,1.75
2023-05-10T22:24:10.787Z,1.80
2023-05-10T22:26:38.733Z,1.80
2023-05-10T22:29:06.908Z,2.17
2023-05-10T22:31:36.468Z,1.70
2023-05-10T22:34:04.782Z,2.00
2023-05-10T22:36:32.750Z,2.10
2023-05-10T22:39:00.691Z,1.98
2023-05-10T22:41:28.632Z,2.10
2023-05-10T22:43:56.809Z,1.73
2023-05-10T22:46:24.873Z,1.80
2023-05-10T22:48:54.367Z,1.55
2023-05-10T22:51:23.017Z,2.08
2023-05-10T22:53:51.169Z,1.73
2023-05-10T22:56:19.478Z,2.00
2023-05-10T22:58:47.427Z,1.92
2023-05-10T23:01:15.876Z,1.98
2023-05-10T23:03:43.821Z,1.98
2023-05-10T23:06:13.292Z,1.90
2023-05-10T23:08:41.298Z,1.88
2023-05-10T23:11:09.329Z,2.00
2023-05-10T23:13:37.438Z,2.17
2023-05-10T23:16:09.339Z,1.92
2023-05-10T23:18:37.411Z,1.80
2023-05-10T23:21:05.866Z,2.05
2023-05-10T23:23:35.554Z,1.88
2023-05-10T23:26:04.257Z,1.90
2023-05-10T23:28:32.256Z,1.73
2023-05-10T23:31:00.299Z,1.88
2023-05-10T23:33:28.944Z,2.05
2023-05-10T23:35:57.062Z,1.80
2023-05-10T23:38:25.045Z,2.08
2023-05-10T23:40:54.976Z,2.10
2023-05-10T23:43:23.036Z,1.80
2023-05-10T23:45:54.867Z,1.58
2023-05-10T23:48:23.075Z,1.67
2023-05-10T23:50:51.260Z,1.70
2023-05-10T23:53:19.398Z,2.03
2023-05-10T23:55:47.498Z,1.60
2023-05-10T23:58:16.923Z,1.95
